Ames, Oklahoma
Current Conditions -  °F | °C
As of 5:58 AM on Friday 24 Oct 2014 (Local Time) from KEND Reporting Station
Clear Clear  
Wind Chill: 58°   Ceiling: Unl
Heat Index: 58°   Visibility: 10mi
Dew Point: 57°   Wind: 7mph
Humidity: 95%   Direction: 150°SSE
Pressure: 30.06"   Gusts: NA
Location:  36.25°N, 98.19°W
Report Text: KEND 241058Z AUTO 15006KT 10SM CLR 15/14 A3006 RMK AO2 SLP174 T01460138 $
Loading
Personal Weather Stations






























Interactive Weather Map New forecast layout! Learn more

10-Day Weather Forecast

Advertisements
Track Severe Weather on mobile